Time,TemperatureF,DewpointF,PressureIn,WindDirection,WindDirectionDegrees,WindSpeedMPH,WindSpeedGustMPH,Humidity,HourlyPrecipIn,Conditions,Clouds,dailyrainin,SoftwareType,DateUTC
2013-11-15 00:01:00,30.1,17.1,30.36,SW,225,2.0,2.0,58,0.00,,CLR,0.00,VWS V14.01,2013-11-15 05:01:00,
2013-11-15 00:06:00,30.1,17.5,30.36,SW,225,2.0,2.0,59,0.00,,CLR,0.00,VWS V14.01,2013-11-15 05:06:00,
2013-11-15 00:11:00,29.9,17.3,30.35,SW,225,2.0,2.0,59,0.00,,CLR,0.00,VWS V14.01,2013-11-15 05:11:00,
2013-11-15 00:16:00,29.9,17.3,30.36,SW,225,2.0,2.0,59,0.00,,CLR,0.00,VWS V14.01,2013-11-15 05:16:00,
2013-11-15 00:21:00,29.9,17.3,30.36,SW,225,2.0,2.0,59,0.00,,CLR,0.00,VWS V14.01,2013-11-15 05:21:00,
2013-11-15 00:26:00,29.9,17.7,30.35,SW,225,2.0,2.0,60,0.00,,CLR,0.00,VWS V14.01,2013-11-15 05:26:00,
2013-11-15 00:31:00,29.9,17.3,30.35,SW,225,2.0,2.0,59,0.00,,CLR,0.00,VWS V14.01,2013-11-15 05:31:00,
2013-11-15 00:36:00,29.7,17.1,30.35,SW,225,2.0,2.0,59,0.00,,CLR,0.00,VWS V14.01,2013-11-15 05:36:00,
2013-11-15 00:41:00,29.7,16.8,30.35,SW,225,2.0,2.0,58,0.00,,CLR,0.00,VWS V14.01,2013-11-15 05:41:00,
2013-11-15 00:46:00,29.5,16.6,30.35,SW,225,2.0,2.0,58,0.00,,CLR,0.00,VWS V14.01,2013-11-15 05:46:00,
2013-11-15 00:51:00,29.5,16.6,30.35,SSW,202,2.0,2.0,58,0.00,,CLR,0.00,VWS V14.01,2013-11-15 05:51:00,
2013-11-15 00:56:00,29.5,16.6,30.35,SSW,202,2.0,2.0,58,0.00,,FEW250,0.00,VWS V14.01,2013-11-15 05:56:00,
2013-11-15 01:01:00,29.3,16.8,30.35,SSW,202,2.0,2.0,59,0.00,,FEW250,0.00,VWS V14.01,2013-11-15 06:01:00,
2013-11-15 01:06:00,29.2,16.3,30.34,SSW,202,2.0,2.0,58,0.00,,FEW250,0.00,VWS V14.01,2013-11-15 06:06:00,
2013-11-15 01:11:00,29.2,16.3,30.34,SSW,202,2.0,2.0,58,0.00,,FEW250,0.00,VWS V14.01,2013-11-15 06:11:00,
2013-11-15 01:16:00,29.2,16.3,30.34,SSW,202,2.0,2.0,58,0.00,,FEW250,0.00,VWS V14.01,2013-11-15 06:16:00,
2013-11-15 01:21:00,29.0,16.1,30.34,SSW,202,2.0,2.0,58,0.00,,FEW250,0.00,VWS V14.01,2013-11-15 06:21:00,
2013-11-15 01:26:00,29.0,16.1,30.34,SSW,202,2.0,2.0,58,0.00,,FEW250,0.00,VWS V14.01,2013-11-15 06:26:00,
2013-11-15 01:31:00,29.0,15.3,30.34,SSW,202,2.0,2.0,56,0.00,,FEW250,0.00,VWS V14.01,2013-11-15 06:31:00,
2013-11-15 01:36:00,29.2,15.1,30.33,SSW,202,2.0,2.0,55,0.00,,FEW250,0.00,VWS V14.01,2013-11-15 06:36:00,
2013-11-15 01:41:00,29.3,15.6,30.34,SSW,202,2.0,2.0,56,0.00,,FEW250,0.00,VWS V14.01,2013-11-15 06:41:00,
2013-11-15 01:46:00,29.3,14.7,30.33,SSW,202,2.0,2.0,54,0.00,,FEW250,0.00,VWS V14.01,2013-11-15 06:46:00,
2013-11-15 01:51:00,29.3,15.1,30.33,SSW,202,2.0,2.0,55,0.00,,FEW250,0.00,VWS V14.01,2013-11-15 06:51:00,
2013-11-15 01:56:00,29.5,15.3,30.32,SSW,202,2.0,2.0,55,0.00,,FEW200,0.00,VWS V14.01,2013-11-15 06:56:00,
2013-11-15 02:01:00,29.5,15.3,30.32,SSW,202,2.0,2.0,55,0.00,,FEW200,0.00,VWS V14.01,2013-11-15 07:01:00,
2013-11-15 02:06:00,29.5,14.9,30.32,SSW,202,2.0,2.0,54,0.00,,FEW200,0.00,VWS V14.01,2013-11-15 07:06:00,
2013-11-15 02:11:00,29.5,14.9,30.32,SSW,202,2.0,2.0,54,0.00,,FEW200,0.00,VWS V14.01,2013-11-15 07:11:00,
2013-11-15 02:16:00,29.5,14.9,30.32,SSW,202,2.0,2.0,54,0.00,,FEW200,0.00,VWS V14.01,2013-11-15 07:16:00,
2013-11-15 02:21:00,29.5,14.9,30.33,SSW,202,2.0,2.0,54,0.00,,FEW200,0.00,VWS V14.01,2013-11-15 07:21:00,
2013-11-15 02:26:00,29.5,14.5,30.33,SSW,202,2.0,2.0,53,0.00,,FEW200,0.00,VWS V14.01,2013-11-15 07:26:00,
2013-11-15 02:31:00,29.5,14.9,30.33,SSW,202,2.0,2.0,54,0.00,,FEW200,0.00,VWS V14.01,2013-11-15 07:31:00,
2013-11-15 02:36:00,29.5,14.9,30.33,SSW,202,2.0,2.0,54,0.00,,FEW200,0.00,VWS V14.01,2013-11-15 07:36:00,
2013-11-15 02:41:00,29.3,14.3,30.33,SSW,202,2.0,2.0,53,0.00,,FEW200,0.00,VWS V14.01,2013-11-15 07:41:00,
2013-11-15 02:46:00,29.2,14.2,30.33,SSW,202,2.0,2.0,53,0.00,,FEW200,0.00,VWS V14.01,2013-11-15 07:46:00,
2013-11-15 02:51:00,29.3,14.3,30.33,SSW,202,2.0,2.0,53,0.00,,FEW200,0.00,VWS V14.01,2013-11-15 07:51:00,
2013-11-15 02:56:00,29.5,13.6,30.33,SSW,202,2.0,2.0,51,0.00,,FEW250,0.00,VWS V14.01,2013-11-15 07:56:00,
2013-11-15 03:01:00,29.5,14.1,30.33,SSW,202,2.0,2.0,52,0.00,,FEW250,0.00,VWS V14.01,2013-11-15 08:01:00,
2013-11-15 03:06:00,29.5,14.1,30.33,SSW,202,2.0,2.0,52,0.00,,FEW250,0.00,VWS V14.01,2013-11-15 08:06:00,
2013-11-15 03:11:00,29.7,13.8,30.33,SSE,158,2.0,2.0,51,0.00,,FEW250,0.00,VWS V14.01,2013-11-15 08:11:00,
2013-11-15 03:16:00,29.5,14.1,30.32,SSE,158,2.0,2.0,52,0.00,,FEW250,0.00,VWS V14.01,2013-11-15 08:16:00,
2013-11-15 03:21:00,29.5,13.6,30.32,SSE,158,2.0,2.0,51,0.00,,FEW250,0.00,VWS V14.01,2013-11-15 08:21:00,
2013-11-15 03:26:00,29.5,13.6,30.32,SSE,158,2.0,2.0,51,0.00,,FEW250,0.00,VWS V14.01,2013-11-15 08:26:00,
2013-11-15 03:31:00,29.5,14.1,30.32,SSE,158,2.0,2.0,52,0.00,,FEW250,0.00,VWS V14.01,2013-11-15 08:31:00,
2013-11-15 03:36:00,29.5,13.2,30.32,SSE,158,2.0,2.0,50,0.00,,FEW250,0.00,VWS V14.01,2013-11-15 08:36:00,
2013-11-15 03:41:00,29.5,13.6,30.31,SSE,158,2.0,2.0,51,0.00,,FEW250,0.00,VWS V14.01,2013-11-15 08:41:00,
2013-11-15 03:46:00,29.7,12.9,30.31,SSE,158,2.0,2.0,49,0.00,,FEW250,0.00,VWS V14.01,2013-11-15 08:46:00,
2013-11-15 03:51:00,29.9,13.1,30.31,SSE,158,2.0,2.0,49,0.00,,FEW250,0.00,VWS V14.01,2013-11-15 08:51:00,
2013-11-15 03:56:00,29.9,13.1,30.31,SSE,158,2.0,2.0,49,0.00,,OVC200,0.00,VWS V14.01,2013-11-15 08:56:00,
2013-11-15 04:01:00,29.9,13.5,30.31,SSE,158,2.0,2.0,50,0.00,,OVC200,0.00,VWS V14.01,2013-11-15 09:01:00,
2013-11-15 04:06:00,29.9,12.1,30.31,SSE,158,2.0,2.0,47,0.00,,OVC200,0.00,VWS V14.01,2013-11-15 09:06:00,
2013-11-15 04:11:00,29.9,12.6,30.31,SSE,158,2.0,2.0,48,0.00,,OVC200,0.00,VWS V14.01,2013-11-15 09:11:00,
2013-11-15 04:16:00,30.1,13.3,30.31,SSE,158,2.0,2.0,49,0.00,,OVC200,0.00,VWS V14.01,2013-11-15 09:16:00,
2013-11-15 04:21:00,30.1,12.8,30.31,SSE,158,2.0,2.0,48,0.00,,OVC200,0.00,VWS V14.01,2013-11-15 09:21:00,
2013-11-15 04:26:00,30.2,12.4,30.31,SSE,158,2.0,2.0,47,0.00,,OVC200,0.00,VWS V14.01,2013-11-15 09:26:00,
2013-11-15 04:31:00,30.4,12.6,30.31,SSE,158,2.0,2.0,47,0.00,,OVC200,0.00,VWS V14.01,2013-11-15 09:31:00,
2013-11-15 04:36:00,30.6,12.8,30.31,SSE,158,2.0,2.0,47,0.00,,OVC200,0.00,VWS V14.01,2013-11-15 09:36:00,
2013-11-15 04:41:00,30.6,12.8,30.31,SSE,158,2.0,2.0,47,0.00,,OVC200,0.00,VWS V14.01,2013-11-15 09:41:00,
2013-11-15 04:46:00,30.8,12.0,30.31,SSE,158,2.0,2.0,45,0.00,,OVC200,0.00,VWS V14.01,2013-11-15 09:46:00,
2013-11-15 04:51:00,30.8,12.0,30.31,SSE,158,2.0,2.0,45,0.00,,OVC200,0.00,VWS V14.01,2013-11-15 09:51:00,
2013-11-15 04:56:00,30.8,13.0,30.31,SSE,158,2.0,2.0,47,0.00,,OVC250,0.00,VWS V14.01,2013-11-15 09:56:00,
2013-11-15 05:01:00,30.8,12.5,30.31,SSE,158,2.0,2.0,46,0.00,,OVC250,0.00,VWS V14.01,2013-11-15 10:01:00,
2013-11-15 05:06:00,31.0,13.1,30.31,SSE,158,2.0,2.0,47,0.00,,OVC250,0.00,VWS V14.01,2013-11-15 10:06:00,
2013-11-15 05:11:00,31.1,11.8,30.31,SSE,158,2.0,2.0,44,0.00,,OVC250,0.00,VWS V14.01,2013-11-15 10:11:00,
2013-11-15 05:16:00,31.1,11.8,30.32,SSE,158,2.0,2.0,44,0.00,,OVC250,0.00,VWS V14.01,2013-11-15 10:16:00,
2013-11-15 05:21:00,31.1,11.8,30.32,SSE,158,2.0,2.0,44,0.00,,OVC250,0.00,VWS V14.01,2013-11-15 10:21:00,
2013-11-15 05:26:00,31.3,12.4,30.32,SSE,158,2.0,2.0,45,0.00,,OVC250,0.00,VWS V14.01,2013-11-15 10:26:00,
2013-11-15 05:31:00,31.5,9.4,30.31,SSE,158,2.2,2.2,39,0.00,,OVC250,0.00,VWS V14.01,2013-11-15 10:31:00,
2013-11-15 05:36:00,31.5,8.8,30.31,SSE,158,2.0,2.0,38,0.00,,OVC250,0.00,VWS V14.01,2013-11-15 10:36:00,
2013-11-15 05:41:00,31.5,11.1,30.31,SSE,158,2.0,2.0,42,0.00,,OVC250,0.00,VWS V14.01,2013-11-15 10:41:00,
2013-11-15 05:46:00,31.7,9.6,30.31,SSE,158,2.0,2.0,39,0.00,,OVC250,0.00,VWS V14.01,2013-11-15 10:46:00,
2013-11-15 05:51:00,31.7,11.2,30.32,SSE,158,2.0,2.0,42,0.00,,OVC250,0.00,VWS V14.01,2013-11-15 10:51:00,
2013-11-15 05:56:00,31.7,10.7,30.31,SSE,158,2.0,2.0,41,0.00,,BKN230,0.00,VWS V14.01,2013-11-15 10:56:00,
2013-11-15 06:01:00,31.7,9.6,30.32,ENE,68,2.0,2.0,39,0.00,,BKN230,0.00,VWS V14.01,2013-11-15 11:01:00,
2013-11-15 06:06:00,31.7,10.1,30.32,ENE,68,2.0,2.0,40,0.00,,BKN230,0.00,VWS V14.01,2013-11-15 11:06:00,
2013-11-15 06:11:00,31.9,10.9,30.32,ENE,68,2.0,2.0,41,0.00,,BKN230,0.00,VWS V14.01,2013-11-15 11:11:00,
2013-11-15 06:16:00,31.9,10.9,30.32,ENE,68,2.0,2.0,41,0.00,,BKN230,0.00,VWS V14.01,2013-11-15 11:16:00,
2013-11-15 06:21:00,32.0,11.5,30.33,ENE,68,2.0,2.0,42,0.00,,BKN230,0.00,VWS V14.01,2013-11-15 11:21:00,
2013-11-15 06:26:00,32.2,11.2,30.32,ENE,68,2.0,2.0,41,0.00,,BKN230,0.00,VWS V14.01,2013-11-15 11:26:00,
2013-11-15 06:31:00,32.4,10.8,30.32,ENE,68,2.0,2.0,40,0.00,,BKN230,0.00,VWS V14.01,2013-11-15 11:31:00,
2013-11-15 06:36:00,32.6,10.4,30.33,ENE,68,2.0,2.0,39,0.00,,BKN230,0.00,VWS V14.01,2013-11-15 11:36:00,
2013-11-15 06:41:00,32.8,11.1,30.33,ENE,68,2.0,2.0,40,0.00,,BKN230,0.00,VWS V14.01,2013-11-15 11:41:00,
2013-11-15 06:46:00,32.8,11.1,30.33,ENE,68,2.0,2.0,40,0.00,,BKN230,0.00,VWS V14.01,2013-11-15 11:46:00,
2013-11-15 06:51:00,32.8,11.1,30.33,ENE,68,2.0,2.0,40,0.00,,BKN230,0.00,VWS V14.01,2013-11-15 11:51:00,
2013-11-15 06:55:00,32.9,10.7,30.33,ENE,68,2.0,2.0,39,0.00,,BKN230,0.00,VWS V14.01,2013-11-15 11:55:00,
2013-11-15 07:00:00,32.9,10.7,30.32,ENE,68,2.0,2.0,39,0.00,,OVC250,0.00,VWS V14.01,2013-11-15 12:00:00,
2013-11-15 07:05:00,33.1,10.9,30.33,ENE,68,2.0,2.0,39,0.00,,OVC250,0.00,VWS V14.01,2013-11-15 12:05:00,
2013-11-15 07:10:00,33.1,10.3,30.33,ENE,68,2.0,2.0,38,0.00,,OVC250,0.00,VWS V14.01,2013-11-15 12:10:00,
2013-11-15 07:15:00,33.3,10.4,30.33,ENE,68,2.0,2.0,38,0.00,,OVC250,0.00,VWS V14.01,2013-11-15 12:15:00,
2013-11-15 07:20:00,33.5,10.6,30.32,ENE,68,2.0,2.0,38,0.00,,OVC250,0.00,VWS V14.01,2013-11-15 12:20:00,
2013-11-15 07:25:00,33.7,9.0,30.32,ENE,68,2.0,2.0,35,0.00,,OVC250,0.00,VWS V14.01,2013-11-15 12:25:00,
2013-11-15 07:30:00,33.7,9.6,30.33,ENE,68,2.0,2.0,36,0.00,,OVC250,0.00,VWS V14.01,2013-11-15 12:30:00,
2013-11-15 07:35:00,34.0,10.5,30.33,ENE,68,2.0,2.0,37,0.00,,OVC250,0.00,VWS V14.01,2013-11-15 12:35:00,
2013-11-15 07:40:00,34.2,10.7,30.33,ENE,68,2.0,2.0,37,0.00,,OVC250,0.00,VWS V14.01,2013-11-15 12:40:00,
2013-11-15 07:45:00,34.6,9.8,30.33,ENE,68,2.0,2.0,35,0.00,,OVC250,0.00,VWS V14.01,2013-11-15 12:45:00,
2013-11-15 07:50:00,34.9,10.7,30.33,ENE,68,2.0,2.0,36,0.00,,OVC250,0.00,VWS V14.01,2013-11-15 12:50:00,
2013-11-15 07:55:00,35.3,10.4,30.33,ENE,68,2.0,2.0,35,0.00,,OVC250,0.00,VWS V14.01,2013-11-15 12:55:00,
2013-11-15 08:00:00,35.6,7.2,30.33,ENE,68,2.0,2.0,30,0.00,,OVC180,0.00,VWS V14.01,2013-11-15 13:00:00,
2013-11-15 08:05:00,36.4,8.7,30.32,ENE,68,2.0,2.0,31,0.00,,OVC180,0.00,VWS V14.01,2013-11-15 13:05:00,
2013-11-15 08:10:00,36.7,11.0,30.33,ENE,68,2.0,2.0,34,0.00,,OVC180,0.00,VWS V14.01,2013-11-15 13:10:00,
2013-11-15 08:15:00,37.1,12.6,30.33,ENE,68,2.0,2.0,36,0.00,,OVC180,0.00,VWS V14.01,2013-11-15 13:15:00,
2013-11-15 08:20:00,37.8,13.9,30.33,WNW,292,2.9,2.9,37,0.00,,OVC180,0.00,VWS V14.01,2013-11-15 13:20:00,
2013-11-15 08:25:00,38.5,14.5,30.34,WNW,292,2.0,2.0,37,0.00,,OVC180,0.00,VWS V14.01,2013-11-15 13:25:00,
2013-11-15 08:30:00,38.9,16.1,30.33,WNW,292,2.0,2.0,39,0.00,,OVC180,0.00,VWS V14.01,2013-11-15 13:30:00,
2013-11-15 08:35:00,39.6,18.4,30.34,NNW,338,2.4,2.4,42,0.00,,OVC180,0.00,VWS V14.01,2013-11-15 13:35:00,
2013-11-15 08:40:00,40.0,20.4,30.34,NNE,22,2.4,2.4,45,0.00,,OVC180,0.00,VWS V14.01,2013-11-15 13:40:00,
2013-11-15 08:45:00,40.5,21.4,30.34,NNE,22,2.0,2.0,46,0.00,,OVC180,0.00,VWS V14.01,2013-11-15 13:45:00,
2013-11-15 08:50:00,41.0,22.8,30.35,SSE,158,2.4,2.4,48,0.00,,OVC180,0.00,VWS V14.01,2013-11-15 13:50:00,
2013-11-15 08:55:00,41.4,23.7,30.35,SSW,202,2.2,2.2,49,0.00,,OVC180,0.00,VWS V14.01,2013-11-15 13:55:00,
2013-11-15 09:00:00,41.9,25.1,30.35,ENE,68,2.0,2.0,51,0.00,,OVC180,0.00,VWS V14.01,2013-11-15 14:00:00,
2013-11-15 09:05:00,42.3,25.5,30.35,ENE,68,2.0,2.0,51,0.00,,OVC180,0.00,VWS V14.01,2013-11-15 14:05:00,
2013-11-15 09:10:00,42.7,26.3,30.35,NW,315,2.2,2.2,52,0.00,,OVC180,0.00,VWS V14.01,2013-11-15 14:10:00,
2013-11-15 09:15:00,43.2,26.8,30.35,NW,315,2.0,2.0,52,0.00,,OVC180,0.00,VWS V14.01,2013-11-15 14:15:00,
2013-11-15 09:20:00,43.7,27.7,30.35,NW,315,2.0,2.0,53,0.00,,OVC180,0.00,VWS V14.01,2013-11-15 14:20:00,
2013-11-15 09:25:00,44.1,28.5,30.35,NW,315,2.0,2.0,54,0.00,,OVC180,0.00,VWS V14.01,2013-11-15 14:25:00,
2013-11-15 09:30:00,44.3,29.2,30.35,NE,45,2.0,2.0,55,0.00,,OVC180,0.00,VWS V14.01,2013-11-15 14:30:00,
2013-11-15 09:35:00,44.8,29.2,30.35,NNE,22,3.8,3.8,54,0.00,,OVC180,0.00,VWS V14.01,2013-11-15 14:35:00,
2013-11-15 09:40:00,45.4,31.1,30.35,NNE,22,2.7,2.7,57,0.00,,OVC180,0.00,VWS V14.01,2013-11-15 14:40:00,
2013-11-15 09:45:00,45.7,31.4,30.35,East,90,2.2,2.2,57,0.00,,OVC180,0.00,VWS V14.01,2013-11-15 14:45:00,
2013-11-15 09:50:00,46.3,31.9,30.35,ENE,68,2.2,2.2,57,0.00,,OVC180,0.00,VWS V14.01,2013-11-15 14:50:00,
2013-11-15 09:55:00,46.8,32.4,30.35,NNE,22,2.7,2.7,57,0.00,,OVC180,0.00,VWS V14.01,2013-11-15 14:55:00,
2013-11-15 10:00:00,47.5,33.0,30.35,NE,45,2.4,2.4,57,0.00,,OVC025,0.00,VWS V14.01,2013-11-15 15:00:00,
2013-11-15 10:05:00,48.2,33.7,30.35,ESE,112,2.0,2.0,57,0.00,,OVC025,0.00,VWS V14.01,2013-11-15 15:05:00,
2013-11-15 10:10:00,48.6,34.1,30.35,ESE,112,2.0,2.0,57,0.00,,OVC025,0.00,VWS V14.01,2013-11-15 15:10:00,
2013-11-15 10:15:00,49.3,34.7,30.36,WNW,292,2.2,2.2,57,0.00,,OVC025,0.00,VWS V14.01,2013-11-15 15:15:00,
2013-11-15 10:20:00,50.0,35.4,30.35,WNW,292,2.0,2.0,57,0.00,,OVC025,0.00,VWS V14.01,2013-11-15 15:20:00,
2013-11-15 10:25:00,50.6,36.4,30.35,SSW,202,2.2,2.2,58,0.00,,OVC025,0.00,VWS V14.01,2013-11-15 15:25:00,
2013-11-15 10:30:00,50.8,36.6,30.35,NNE,22,2.2,2.2,58,0.00,,SCT065,0.00,VWS V14.01,2013-11-15 15:30:00,
2013-11-15 10:35:00,51.1,36.8,30.35,SE,135,3.1,3.1,58,0.00,,SCT065,0.00,VWS V14.01,2013-11-15 15:35:00,
2013-11-15 10:40:00,51.1,36.8,30.35,SE,135,2.0,2.0,58,0.00,,SCT065,0.00,VWS V14.01,2013-11-15 15:40:00,
2013-11-15 10:45:00,51.5,37.2,30.35,SE,135,2.4,2.4,58,0.00,,SCT065,0.00,VWS V14.01,2013-11-15 15:45:00,
2013-11-15 10:50:00,51.8,37.5,30.35,SSE,158,2.0,2.0,58,0.00,,SCT065,0.00,VWS V14.01,2013-11-15 15:50:00,
2013-11-15 10:55:00,52.6,38.3,30.35,SSE,158,2.0,2.0,58,0.00,,SCT065,0.00,VWS V14.01,2013-11-15 15:55:00,
2013-11-15 11:00:00,52.9,38.5,30.34,ESE,112,2.9,2.9,58,0.00,,SCT075,0.00,VWS V14.01,2013-11-15 16:00:00,
2013-11-15 11:05:00,53.3,38.9,30.34,ESE,112,2.4,2.4,58,0.00,,SCT075,0.00,VWS V14.01,2013-11-15 16:05:00,
2013-11-15 11:10:00,53.8,38.9,30.33,ESE,112,2.2,2.2,57,0.00,,SCT075,0.00,VWS V14.01,2013-11-15 16:10:00,
2013-11-15 11:15:00,54.4,40.0,30.33,SW,225,2.4,2.4,58,0.00,,SCT075,0.00,VWS V14.01,2013-11-15 16:15:00,
2013-11-15 11:20:00,54.9,40.0,30.33,South,180,2.0,2.0,57,0.00,,BKN070,0.00,VWS V14.01,2013-11-15 16:20:00,
2013-11-15 11:25:00,55.4,40.4,30.33,South,180,2.0,2.0,57,0.00,,BKN070,0.00,VWS V14.01,2013-11-15 16:25:00,
2013-11-15 11:30:00,55.8,40.8,30.32,South,180,2.0,2.0,57,0.00,,BKN070,0.00,VWS V14.01,2013-11-15 16:30:00,
2013-11-15 11:35:00,56.2,41.2,30.32,SW,225,2.0,2.0,57,0.00,,BKN070,0.00,VWS V14.01,2013-11-15 16:35:00,
2013-11-15 11:40:00,56.5,41.0,30.31,East,90,2.0,2.0,56,0.00,,BKN070,0.00,VWS V14.01,2013-11-15 16:40:00,
2013-11-15 11:45:00,56.7,41.2,30.31,WNW,292,2.0,2.0,56,0.00,,BKN070,0.00,VWS V14.01,2013-11-15 16:45:00,
2013-11-15 11:50:00,57.1,41.1,30.31,NE,45,2.0,2.0,55,0.00,,BKN070,0.00,VWS V14.01,2013-11-15 16:50:00,
2013-11-15 11:55:00,57.4,40.9,30.30,North,0,2.2,2.2,54,0.00,,BKN070,0.00,VWS V14.01,2013-11-15 16:55:00,
2013-11-15 12:00:00,57.6,40.6,30.30,SSE,158,2.9,2.9,53,0.00,,OVC180,0.00,VWS V14.01,2013-11-15 17:00:00,
2013-11-15 12:05:00,57.8,40.8,30.30,SE,135,2.4,2.4,53,0.00,,OVC180,0.00,VWS V14.01,2013-11-15 17:05:00,
2013-11-15 12:10:00,58.0,41.5,30.29,SE,135,2.0,2.0,54,0.00,,OVC180,0.00,VWS V14.01,2013-11-15 17:10:00,
2013-11-15 12:15:00,58.3,41.3,30.30,ESE,112,2.4,2.4,53,0.00,,OVC180,0.00,VWS V14.01,2013-11-15 17:15:00,
2013-11-15 12:20:00,58.1,41.1,30.29,ESE,112,2.0,2.0,53,0.00,,OVC180,0.00,VWS V14.01,2013-11-15 17:20:00,
2013-11-15 12:25:00,58.3,40.8,30.29,ESE,112,2.4,2.4,52,0.00,,OVC180,0.00,VWS V14.01,2013-11-15 17:25:00,
2013-11-15 12:30:00,58.5,41.9,30.28,SE,135,2.4,2.4,54,0.00,,OVC180,0.00,VWS V14.01,2013-11-15 17:30:00,
2013-11-15 12:35:00,58.9,42.3,30.28,SW,225,2.2,2.2,54,0.00,,OVC180,0.00,VWS V14.01,2013-11-15 17:35:00,
2013-11-15 12:40:00,59.2,42.6,30.29,SSW,202,2.0,2.4,54,0.00,,OVC180,0.00,VWS V14.01,2013-11-15 17:40:00,
2013-11-15 12:45:00,59.6,42.5,30.28,South,180,2.0,3.1,53,0.00,,OVC180,0.00,VWS V14.01,2013-11-15 17:45:00,
2013-11-15 12:50:00,59.6,42.5,30.28,NNE,22,2.2,2.2,53,0.00,,OVC180,0.00,VWS V14.01,2013-11-15 17:50:00,
2013-11-15 12:55:00,59.6,42.5,30.28,NE,45,2.2,2.2,53,0.00,,OVC180,0.00,VWS V14.01,2013-11-15 17:55:00,
2013-11-15 13:00:00,59.8,42.2,30.28,ESE,112,2.0,2.0,52,0.00,,BKN018,0.00,VWS V14.01,2013-11-15 18:00:00,
2013-11-15 13:05:00,59.9,42.7,30.28,SSE,158,2.0,2.0,53,0.00,,BKN018,0.00,VWS V14.01,2013-11-15 18:05:00,
2013-11-15 13:10:00,60.1,42.4,30.27,SSE,158,2.2,2.2,52,0.00,,BKN018,0.00,VWS V14.01,2013-11-15 18:10:00,
2013-11-15 13:15:00,60.1,42.4,30.27,SSE,158,2.4,2.4,52,0.00,,BKN018,0.00,VWS V14.01,2013-11-15 18:15:00,
2013-11-15 13:20:00,60.1,42.4,30.26,SE,135,2.0,2.0,52,0.00,,BKN018,0.00,VWS V14.01,2013-11-15 18:20:00,
2013-11-15 13:25:00,60.1,42.9,30.26,SSE,158,2.0,2.0,53,0.00,,BKN018,0.00,VWS V14.01,2013-11-15 18:25:00,
2013-11-15 13:30:00,60.3,43.1,30.25,SSE,158,2.0,2.0,53,0.00,,BKN018,0.00,VWS V14.01,2013-11-15 18:30:00,
2013-11-15 13:35:00,60.1,42.4,30.25,ESE,112,2.2,2.4,52,0.00,,BKN018,0.00,VWS V14.01,2013-11-15 18:35:00,
2013-11-15 13:40:00,60.1,42.9,30.25,SSW,202,2.0,2.4,53,0.00,,BKN018,0.00,VWS V14.01,2013-11-15 18:40:00,
2013-11-15 13:45:00,60.5,43.3,30.24,NNE,22,2.0,2.0,53,0.00,,BKN018,0.00,VWS V14.01,2013-11-15 18:45:00,
2013-11-15 13:50:00,60.7,43.5,30.24,ENE,68,2.0,2.2,53,0.00,,BKN018,0.00,VWS V14.01,2013-11-15 18:50:00,
2013-11-15 13:55:00,60.7,43.5,30.24,SE,135,2.2,2.2,53,0.00,,BKN018,0.00,VWS V14.01,2013-11-15 18:55:00,
2013-11-15 14:00:00,60.7,43.0,30.23,ENE,68,2.2,2.2,52,0.00,,OVC250,0.00,VWS V14.01,2013-11-15 19:00:00,
2013-11-15 14:05:00,60.8,43.1,30.23,East,90,2.9,2.9,52,0.00,,OVC250,0.00,VWS V14.01,2013-11-15 19:05:00,
2013-11-15 14:10:00,60.8,43.6,30.22,NE,45,2.0,2.0,53,0.00,,OVC250,0.00,VWS V14.01,2013-11-15 19:10:00,
2013-11-15 14:15:00,60.8,43.6,30.22,East,90,2.0,2.0,53,0.00,,OVC250,0.00,VWS V14.01,2013-11-15 19:15:00,
2013-11-15 14:20:00,61.0,44.7,30.22,SE,135,2.4,2.4,55,0.00,,OVC250,0.00,VWS V14.01,2013-11-15 19:20:00,
2013-11-15 14:25:00,61.2,45.4,30.22,SSW,202,2.4,2.4,56,0.00,,OVC250,0.00,VWS V14.01,2013-11-15 19:25:00,
2013-11-15 14:30:00,61.4,45.1,30.21,ESE,112,2.9,2.9,55,0.00,,OVC250,0.00,VWS V14.01,2013-11-15 19:30:00,
2013-11-15 14:35:00,61.6,45.8,30.21,SSW,202,2.9,3.3,56,0.00,,OVC250,0.00,VWS V14.01,2013-11-15 19:35:00,
2013-11-15 14:40:00,61.6,45.8,30.21,East,90,3.3,3.3,56,0.00,,OVC250,0.00,VWS V14.01,2013-11-15 19:40:00,
2013-11-15 14:45:00,61.4,45.6,30.21,NNW,338,2.4,2.4,56,0.00,,OVC250,0.00,VWS V14.01,2013-11-15 19:45:00,
2013-11-15 14:50:00,61.6,45.8,30.21,NW,315,2.4,2.4,56,0.00,,OVC250,0.00,VWS V14.01,2013-11-15 19:50:00,
2013-11-15 14:55:00,61.6,45.8,30.21,NNW,338,2.4,2.7,56,0.00,,OVC250,0.00,VWS V14.01,2013-11-15 19:55:00,
2013-11-15 15:00:00,61.6,45.8,30.22,NE,45,2.0,2.0,56,0.00,,OVC250,0.00,VWS V14.01,2013-11-15 20:00:00,
2013-11-15 15:05:00,61.6,45.8,30.22,NE,45,2.0,2.0,56,0.00,,OVC250,0.00,VWS V14.01,2013-11-15 20:05:00,
2013-11-15 15:10:00,61.6,45.8,30.21,NW,315,3.1,3.1,56,0.00,,OVC250,0.00,VWS V14.01,2013-11-15 20:10:00,
2013-11-15 15:15:00,61.6,45.8,30.21,SSE,158,2.4,2.4,56,0.00,,OVC250,0.00,VWS V14.01,2013-11-15 20:15:00,
2013-11-15 15:20:00,61.6,45.8,30.21,SSE,158,2.0,2.0,56,0.00,,OVC250,0.00,VWS V14.01,2013-11-15 20:20:00,
2013-11-15 15:25:00,61.6,45.8,30.22,ESE,112,2.2,2.2,56,0.00,,OVC250,0.00,VWS V14.01,2013-11-15 20:25:00,
2013-11-15 15:30:00,61.6,45.8,30.22,SSE,158,2.0,2.0,56,0.00,,OVC250,0.00,VWS V14.01,2013-11-15 20:30:00,
2013-11-15 15:35:00,61.4,45.6,30.22,SE,135,2.0,2.0,56,0.00,,OVC250,0.00,VWS V14.01,2013-11-15 20:35:00,
2013-11-15 15:40:00,61.4,45.6,30.21,North,0,2.0,2.0,56,0.00,,OVC250,0.00,VWS V14.01,2013-11-15 20:40:00,
2013-11-15 15:45:00,61.2,45.4,30.22,ENE,68,2.4,2.4,56,0.00,,OVC250,0.00,VWS V14.01,2013-11-15 20:45:00,
2013-11-15 15:50:00,61.2,45.4,30.22,ENE,68,2.0,2.0,56,0.00,,OVC250,0.00,VWS V14.01,2013-11-15 20:50:00,
2013-11-15 15:55:00,61.2,45.4,30.21,ESE,112,2.0,2.0,56,0.00,,OVC250,0.00,VWS V14.01,2013-11-15 20:55:00,
2013-11-15 16:00:00,61.0,45.2,30.21,ESE,112,2.0,2.0,56,0.00,,OVC140,0.00,VWS V14.01,2013-11-15 21:00:00,
2013-11-15 16:05:00,61.2,45.4,30.21,ESE,112,2.0,2.0,56,0.00,,OVC140,0.00,VWS V14.01,2013-11-15 21:05:00,
2013-11-15 16:10:00,61.2,45.4,30.21,ESE,112,2.0,2.0,56,0.00,,OVC140,0.00,VWS V14.01,2013-11-15 21:10:00,
2013-11-15 16:15:00,61.0,45.2,30.21,SE,135,2.0,2.0,56,0.00,,OVC140,0.00,VWS V14.01,2013-11-15 21:15:00,
2013-11-15 16:20:00,61.0,45.2,30.21,NE,45,2.0,2.7,56,0.00,,OVC140,0.00,VWS V14.01,2013-11-15 21:20:00,
2013-11-15 16:25:00,61.0,45.2,30.20,NE,45,2.0,2.0,56,0.00,,OVC140,0.00,VWS V14.01,2013-11-15 21:25:00,
2013-11-15 16:30:00,60.8,45.0,30.21,NE,45,2.0,2.0,56,0.00,,OVC140,0.00,VWS V14.01,2013-11-15 21:30:00,
2013-11-15 16:35:00,60.8,45.0,30.20,ESE,112,2.0,2.4,56,0.00,,OVC140,0.00,VWS V14.01,2013-11-15 21:35:00,
2013-11-15 16:40:00,60.8,45.0,30.21,SE,135,2.4,2.4,56,0.00,,OVC140,0.00,VWS V14.01,2013-11-15 21:40:00,
2013-11-15 16:45:00,60.7,44.9,30.21,SE,135,2.0,2.0,56,0.00,,OVC140,0.00,VWS V14.01,2013-11-15 21:45:00,
2013-11-15 16:50:00,60.5,44.7,30.21,SE,135,2.0,2.0,56,0.00,,OVC140,0.00,VWS V14.01,2013-11-15 21:50:00,
2013-11-15 16:55:00,60.5,44.7,30.21,SE,135,2.0,2.0,56,0.00,,OVC140,0.00,VWS V14.01,2013-11-15 21:55:00,
2013-11-15 17:00:00,60.3,44.1,30.21,NE,45,2.4,2.4,55,0.00,,OVC140,0.00,VWS V14.01,2013-11-15 22:00:00,
2013-11-15 17:05:00,60.1,43.9,30.21,NNE,22,2.0,2.0,55,0.00,,OVC140,0.00,VWS V14.01,2013-11-15 22:05:00,
2013-11-15 17:10:00,59.9,43.7,30.21,NNE,22,2.0,2.0,55,0.00,,OVC140,0.00,VWS V14.01,2013-11-15 22:10:00,
2013-11-15 17:15:00,59.8,43.6,30.22,NNE,22,2.0,2.0,55,0.00,,OVC140,0.00,VWS V14.01,2013-11-15 22:15:00,
2013-11-15 17:20:00,59.6,43.4,30.22,NNE,22,2.0,2.0,55,0.00,,OVC140,0.00,VWS V14.01,2013-11-15 22:20:00,
2013-11-15 17:25:00,59.4,43.2,30.21,ENE,68,2.0,2.0,55,0.00,,OVC140,0.00,VWS V14.01,2013-11-15 22:25:00,
2013-11-15 17:30:00,59.2,43.1,30.21,ENE,68,2.0,2.0,55,0.00,,OVC140,0.00,VWS V14.01,2013-11-15 22:30:00,
2013-11-15 17:35:00,59.0,42.9,30.21,ENE,68,2.2,2.2,55,0.00,,OVC140,0.00,VWS V14.01,2013-11-15 22:35:00,
2013-11-15 17:40:00,58.9,42.3,30.21,ENE,68,2.0,2.0,54,0.00,,OVC140,0.00,VWS V14.01,2013-11-15 22:40:00,
2013-11-15 17:45:00,58.7,42.1,30.21,ENE,68,2.0,2.0,54,0.00,,OVC140,0.00,VWS V14.01,2013-11-15 22:45:00,
2013-11-15 17:50:00,58.5,41.9,30.21,ENE,68,2.0,2.0,54,0.00,,OVC140,0.00,VWS V14.01,2013-11-15 22:50:00,
2013-11-15 17:55:00,58.3,41.8,30.21,ENE,68,2.0,2.0,54,0.00,,OVC140,0.00,VWS V14.01,2013-11-15 22:55:00,
2013-11-15 18:00:00,58.1,41.1,30.21,ENE,68,2.0,2.0,53,0.00,,OVC140,0.00,VWS V14.01,2013-11-15 23:00:00,
2013-11-15 18:05:00,58.0,41.0,30.21,ENE,68,2.0,2.0,53,0.00,,OVC140,0.00,VWS V14.01,2013-11-15 23:05:00,
2013-11-15 18:10:00,58.0,41.0,30.21,ENE,68,2.0,2.0,53,0.00,,OVC140,0.00,VWS V14.01,2013-11-15 23:10:00,
2013-11-15 18:14:00,57.8,40.3,30.21,ENE,68,2.0,2.0,52,0.00,,OVC140,0.00,VWS V14.01,2013-11-15 23:14:00,
2013-11-15 18:19:00,57.6,40.1,30.22,ENE,68,2.0,2.0,52,0.00,,OVC140,0.00,VWS V14.01,2013-11-15 23:19:00,
2013-11-15 18:24:00,57.6,40.1,30.22,ENE,68,2.0,2.0,52,0.00,,OVC140,0.00,VWS V14.01,2013-11-15 23:24:00,
2013-11-15 18:29:00,57.6,40.1,30.22,ENE,68,2.0,2.0,52,0.00,,OVC140,0.00,VWS V14.01,2013-11-15 23:29:00,
2013-11-15 18:34:00,57.4,39.4,30.22,ENE,68,2.0,2.0,51,0.00,,OVC140,0.00,VWS V14.01,2013-11-15 23:34:00,
2013-11-15 18:39:00,57.4,38.9,30.22,ENE,68,2.0,2.0,50,0.00,,OVC140,0.00,VWS V14.01,2013-11-15 23:39:00,
2013-11-15 18:44:00,57.2,38.8,30.22,ENE,68,2.0,2.0,50,0.00,,OVC140,0.00,VWS V14.01,2013-11-15 23:44:00,
2013-11-15 18:49:00,57.2,38.2,30.22,ENE,68,2.0,2.0,49,0.00,,OVC140,0.00,VWS V14.01,2013-11-15 23:49:00,
2013-11-15 18:54:00,57.2,38.2,30.22,ENE,68,2.0,2.0,49,0.00,,OVC140,0.00,VWS V14.01,2013-11-15 23:54:00,
2013-11-15 18:59:00,57.1,37.6,30.21,ENE,68,2.0,2.0,48,0.00,,OVC140,0.00,VWS V14.01,2013-11-15 23:59:00,
2013-11-15 19:04:00,56.9,37.4,30.21,ENE,68,2.0,2.0,48,0.00,,OVC140,0.00,VWS V14.01,2013-11-16 00:04:00,
2013-11-15 19:09:00,56.9,36.9,30.22,ENE,68,2.0,2.0,47,0.00,,OVC140,0.00,VWS V14.01,2013-11-16 00:09:00,
2013-11-15 19:14:00,56.9,36.9,30.22,ENE,68,2.0,2.0,47,0.00,,OVC140,0.00,VWS V14.01,2013-11-16 00:14:00,
2013-11-15 19:19:00,56.9,36.3,30.21,ENE,68,2.0,2.0,46,0.00,,OVC140,0.00,VWS V14.01,2013-11-16 00:19:00,
2013-11-15 19:24:00,56.9,34.7,30.21,NE,45,2.0,2.0,43,0.00,,OVC140,0.00,VWS V14.01,2013-11-16 00:24:00,
2013-11-15 19:29:00,56.9,35.2,30.21,NE,45,2.0,2.0,44,0.00,,OVC140,0.00,VWS V14.01,2013-11-16 00:29:00,
2013-11-15 19:34:00,56.7,35.0,30.21,NE,45,2.0,2.0,44,0.00,,OVC140,0.00,VWS V14.01,2013-11-16 00:34:00,
2013-11-15 19:39:00,56.7,35.0,30.21,NE,45,2.0,2.0,44,0.00,,OVC140,0.00,VWS V14.01,2013-11-16 00:39:00,
2013-11-15 19:44:00,56.5,34.3,30.21,NE,45,2.9,2.9,43,0.00,,OVC140,0.00,VWS V14.01,2013-11-16 00:44:00,
2013-11-15 19:49:00,56.5,33.1,30.20,NE,45,2.0,2.0,41,0.00,,OVC140,0.00,VWS V14.01,2013-11-16 00:49:00,
2013-11-15 19:54:00,56.3,33.5,30.21,NNE,22,2.0,2.0,42,0.00,,OVC140,0.00,VWS V14.01,2013-11-16 00:54:00,
2013-11-15 19:59:00,56.2,33.4,30.21,NNE,22,2.0,2.0,42,0.00,,OVC085,0.00,VWS V14.01,2013-11-16 00:59:00,
2013-11-15 20:04:00,56.2,32.2,30.21,NNE,22,2.0,2.0,40,0.00,,OVC085,0.00,VWS V14.01,2013-11-16 01:04:00,
2013-11-15 20:09:00,56.2,32.2,30.21,NNE,22,2.0,2.0,40,0.00,,OVC085,0.00,VWS V14.01,2013-11-16 01:09:00,
2013-11-15 20:14:00,56.2,31.6,30.21,NNE,22,2.0,2.0,39,0.00,,OVC085,0.00,VWS V14.01,2013-11-16 01:14:00,
2013-11-15 20:19:00,56.2,29.6,30.21,NNE,22,2.0,2.0,36,0.00,,OVC085,0.00,VWS V14.01,2013-11-16 01:19:00,
2013-11-15 20:24:00,56.0,29.4,30.21,NNE,22,2.0,2.0,36,0.00,,OVC085,0.00,VWS V14.01,2013-11-16 01:24:00,
2013-11-15 20:29:00,56.0,29.4,30.21,NNE,22,2.0,2.0,36,0.00,,OVC085,0.00,VWS V14.01,2013-11-16 01:29:00,
2013-11-15 20:34:00,55.8,24.0,30.21,NNE,22,2.0,2.0,29,0.00,,OVC085,0.00,VWS V14.01,2013-11-16 01:34:00,
2013-11-15 20:39:00,55.6,24.7,30.21,NNE,22,2.0,2.0,30,0.00,,OVC085,0.00,VWS V14.01,2013-11-16 01:39:00,
2013-11-15 20:44:00,55.4,23.7,30.21,NNE,22,2.0,2.0,29,0.00,,OVC085,0.00,VWS V14.01,2013-11-16 01:44:00,
2013-11-15 20:49:00,55.3,23.6,30.21,NNE,22,2.0,2.0,29,0.00,,OVC085,0.00,VWS V14.01,2013-11-16 01:49:00,
2013-11-15 20:54:00,55.3,23.6,30.22,WNW,292,2.4,2.4,29,0.00,,OVC085,0.00,VWS V14.01,2013-11-16 01:54:00,
2013-11-15 20:59:00,55.3,22.8,30.22,West,270,2.2,2.2,28,0.00,,OVC090,0.00,VWS V14.01,2013-11-16 01:59:00,
2013-11-15 21:04:00,55.4,22.0,30.23,WNW,292,2.4,2.4,27,0.00,,OVC090,0.00,VWS V14.01,2013-11-16 02:04:00,
2013-11-15 21:09:00,55.4,22.0,30.23,WNW,292,2.0,2.0,27,0.00,,OVC090,0.00,VWS V14.01,2013-11-16 02:09:00,
2013-11-15 21:14:00,55.6,18.4,30.24,WNW,292,2.0,2.0,23,0.00,,OVC090,0.00,VWS V14.01,2013-11-16 02:14:00,
2013-11-15 21:19:00,55.8,20.5,30.24,WNW,292,2.9,2.9,25,0.00,,OVC090,0.00,VWS V14.01,2013-11-16 02:19:00,
2013-11-15 21:24:00,55.8,19.6,30.24,NW,315,2.4,2.4,24,0.00,,OVC090,0.00,VWS V14.01,2013-11-16 02:24:00,
2013-11-15 21:29:00,55.8,17.5,30.25,WNW,292,2.2,2.2,22,0.00,,OVC090,0.00,VWS V14.01,2013-11-16 02:29:00,
2013-11-15 21:34:00,55.8,16.5,30.25,West,270,2.4,2.4,21,0.00,,OVC090,0.00,VWS V14.01,2013-11-16 02:34:00,
2013-11-15 21:39:00,55.6,12.8,30.25,WNW,292,2.0,2.0,18,0.00,,OVC090,0.00,VWS V14.01,2013-11-16 02:39:00,
2013-11-15 21:44:00,55.6,-0.1,30.25,NNE,22,2.4,2.4,10,0.00,,-RA,0.00,VWS V14.01,2013-11-16 02:44:00,
2013-11-15 21:49:00,55.4,-31.7,30.25,WSW,248,2.2,2.2,2,0.01,,-RA,0.01,VWS V14.01,2013-11-16 02:49:00,
2013-11-15 21:54:00,55.3,-31.8,30.24,ENE,68,2.2,2.2,2,0.02,, +RA,0.02,VWS V14.01,2013-11-16 02:54:00,
2013-11-15 21:59:00,55.1,-44.0,30.24,NNE,22,2.2,2.2,1,0.02,, +RA,0.02,VWS V14.01,2013-11-16 02:59:00,
2013-11-15 22:04:00,54.9,-44.1,30.24,ENE,68,2.9,2.9,1,0.02,, +RA,0.02,VWS V14.01,2013-11-16 03:04:00,
2013-11-15 22:09:00,54.7,-44.3,30.25,SW,225,2.2,2.2,1,0.02,, +RA,0.02,VWS V14.01,2013-11-16 03:09:00,
2013-11-15 22:14:00,54.7,-44.3,30.26,WNW,292,2.4,2.4,1,0.02,, +RA,0.02,VWS V14.01,2013-11-16 03:14:00,
2013-11-15 22:19:00,54.7,-44.3,30.26,West,270,2.0,2.0,1,0.02,,-RA,0.02,VWS V14.01,2013-11-16 03:19:00,
2013-11-15 22:24:00,54.7,-44.3,30.26,West,270,2.0,2.0,1,0.02,,-RA,0.02,VWS V14.01,2013-11-16 03:24:00,
2013-11-15 22:29:00,54.5,-44.4,30.25,North,0,2.0,2.0,1,0.02,, +RA,0.02,VWS V14.01,2013-11-16 03:29:00,
2013-11-15 22:34:00,54.4,-44.4,30.24,North,0,2.0,2.0,1,0.02,, +RA,0.02,VWS V14.01,2013-11-16 03:34:00,
2013-11-15 22:39:00,54.4,-44.4,30.24,North,0,2.0,2.0,1,0.02,, +RA,0.02,VWS V14.01,2013-11-16 03:39:00,
2013-11-15 22:44:00,54.4,-44.4,30.24,North,0,2.0,2.0,1,0.02,, +RA,0.02,VWS V14.01,2013-11-16 03:44:00,
2013-11-15 22:49:00,54.0,-44.7,30.23,North,0,2.0,2.0,1,0.01,, +RA,0.02,VWS V14.01,2013-11-16 03:49:00,
2013-11-15 22:54:00,54.0,-44.7,30.23,North,0,2.0,2.0,1,0.00,,-RA,0.02,VWS V14.01,2013-11-16 03:54:00,
2013-11-15 22:59:00,54.0,-44.7,30.23,North,0,2.0,2.0,1,0.00,,-RA,0.02,VWS V14.01,2013-11-16 03:59:00,
2013-11-15 23:04:00,53.8,-44.8,30.23,North,0,2.0,2.0,1,0.00,,-RA,0.02,VWS V14.01,2013-11-16 04:04:00,
2013-11-15 23:09:00,53.6,-44.9,30.23,North,0,2.0,2.0,1,0.00,,-RA,0.02,VWS V14.01,2013-11-16 04:09:00,
2013-11-15 23:14:00,53.6,-44.9,30.23,North,0,2.0,2.0,1,0.00,,-RA,0.02,VWS V14.01,2013-11-16 04:14:00,
2013-11-15 23:19:00,53.6,-44.9,30.23,North,0,2.0,2.0,1,0.00,,-RA,0.02,VWS V14.01,2013-11-16 04:19:00,
2013-11-15 23:24:00,53.5,-45.0,30.23,North,0,2.0,2.0,1,0.00,,-RA,0.02,VWS V14.01,2013-11-16 04:24:00,
2013-11-15 23:29:00,53.5,-45.0,30.24,North,0,2.0,2.0,1,0.00,,-RA,0.02,VWS V14.01,2013-11-16 04:29:00,
2013-11-15 23:34:00,53.6,-44.9,30.24,North,0,2.0,2.0,1,0.00,,-RA,0.02,VWS V14.01,2013-11-16 04:34:00,
2013-11-15 23:39:00,53.5,-45.0,30.24,North,0,2.0,2.0,1,0.00,,-RA,0.02,VWS V14.01,2013-11-16 04:39:00,
2013-11-15 23:44:00,53.5,-45.0,30.24,North,0,2.0,2.0,1,0.00,,-RA,0.02,VWS V14.01,2013-11-16 04:44:00,
2013-11-15 23:49:00,53.5,-45.0,30.24,North,0,2.0,2.0,1,0.00,,-RA,0.02,VWS V14.01,2013-11-16 04:49:00,
2013-11-15 23:54:00,53.3,-45.1,30.24,North,0,2.0,2.0,1,0.00,,-RA,0.02,VWS V14.01,2013-11-16 04:54:00,
2013-11-15 23:59:00,53.3,-45.1,30.24,North,0,2.0,2.0,1,0.00,,OVC100,0.02,VWS V14.01,2013-11-16 04:59:00,